Time;durP1;ratioP1;P1;durP2;ratioP2;P2;SDS_P1;SDS_P2;PMS_P1;PMS_P2;Temp;Humidity;BMP_temperature;BMP_pressure;BME280_temperature;BME280_humidity;BME280_pressure;Samples;Min_cycle;Max_cycle;Signal;HPM_P1;HPM_P2
2024/01/17 00:00:09;;;;;;;10.07;4.28;;;;;;;-0.88;100.00;99890.78;5074902;28;20036;-71
2024/01/17 00:02:55;;;;;;;8.98;4.90;;;;;;;-0.90;100.00;99879.53;5078709;28;20060;-71
2024/01/17 00:05:41;;;;;;;8.45;4.80;;;;;;;-0.93;100.00;99875.22;5058617;28;20580;-71
2024/01/17 00:08:27;;;;;;;8.80;4.43;;;;;;;-0.94;100.00;99872.69;5074395;28;21933;-70
2024/01/17 00:11:12;;;;;;;6.47;4.43;;;;;;;-0.96;100.00;99878.72;5071041;28;20032;-71
2024/01/17 00:13:58;;;;;;;8.95;5.20;;;;;;;-0.96;100.00;99873.53;5076975;28;20062;-71
2024/01/17 00:16:44;;;;;;;11.75;5.15;;;;;;;-0.95;100.00;99871.81;5058280;28;20576;-70
2024/01/17 00:19:31;;;;;;;7.05;4.68;;;;;;;-0.94;100.00;99873.50;5059881;28;20036;-71
2024/01/17 00:22:16;;;;;;;9.48;5.68;;;;;;;-0.94;100.00;99873.50;5057742;28;20036;-71
2024/01/17 00:25:03;;;;;;;9.88;5.22;;;;;;;-0.93;100.00;99884.78;5049744;28;20035;-70
2024/01/17 00:27:49;;;;;;;11.20;5.60;;;;;;;-0.94;100.00;99873.50;5058978;28;20032;-71
2024/01/17 00:30:35;;;;;;;9.30;5.18;;;;;;;-0.94;100.00;99870.91;5074197;28;20040;-71
2024/01/17 00:33:21;;;;;;;9.18;4.78;;;;;;;-0.94;100.00;99857.09;5059091;28;20032;-71
2024/01/17 00:36:08;;;;;;;10.10;5.00;;;;;;;-0.94;100.00;99854.47;5070594;28;20502;-71
2024/01/17 00:38:54;;;;;;;8.25;4.85;;;;;;;-0.94;100.00;99857.91;5074297;28;20122;-70
2024/01/17 00:41:40;;;;;;;7.57;4.57;;;;;;;-0.93;100.00;99854.44;5059043;28;20028;-71
2024/01/17 00:44:27;;;;;;;9.45;5.25;;;;;;;-0.93;100.00;99840.59;5053770;28;20035;-71
2024/01/17 00:47:12;;;;;;;7.57;4.70;;;;;;;-0.92;100.00;99837.13;5040991;28;20131;-71
2024/01/17 00:49:58;;;;;;;9.35;4.55;;;;;;;-0.92;100.00;99840.59;5073783;28;20599;-70
2024/01/17 00:52:44;;;;;;;9.00;4.68;;;;;;;-0.91;100.00;99833.63;5055917;28;20051;-71
2024/01/17 00:55:30;;;;;;;10.70;5.35;;;;;;;-0.91;100.00;99820.63;5071728;28;20032;-71
2024/01/17 00:58:15;;;;;;;8.40;5.20;;;;;;;-0.92;100.00;99821.53;5073758;28;20040;-70
2024/01/17 01:01:03;;;;;;;6.95;4.40;;;;;;;-0.92;100.00;99812.00;5075262;28;20093;-71
2024/01/17 01:03:49;;;;;;;9.88;5.35;;;;;;;-0.91;100.00;99808.50;5076073;28;20116;-71
2024/01/17 01:06:34;;;;;;;9.45;4.85;;;;;;;-0.91;100.00;99800.72;5074502;28;20036;-71
2024/01/17 01:09:20;;;;;;;8.70;4.97;;;;;;;-0.88;100.00;99805.00;5058255;28;20090;-70
2024/01/17 01:12:07;;;;;;;10.25;4.95;;;;;;;-0.88;100.00;99800.66;5075056;28;20063;-70
2024/01/17 01:14:53;;;;;;;9.63;4.60;;;;;;;-0.87;100.00;99802.38;5048517;28;20035;-71
2024/01/17 01:17:38;;;;;;;10.13;5.47;;;;;;;-0.87;100.00;99804.97;5078474;28;20044;-71
2024/01/17 01:20:24;;;;;;;8.77;4.75;;;;;;;-0.87;100.00;99804.13;5073403;28;21055;-71
2024/01/17 01:23:10;;;;;;;8.15;5.03;;;;;;;-0.88;100.00;99794.63;5044838;28;20355;-71
2024/01/17 01:25:55;;;;;;;7.82;4.93;;;;;;;-0.90;100.00;99798.97;5050622;28;20036;-71
2024/01/17 01:28:41;;;;;;;7.88;4.93;;;;;;;-0.92;100.00;99803.34;5060147;28;20035;-70
2024/01/17 01:31:27;;;;;;;8.15;5.22;;;;;;;-0.94;100.00;99792.13;5057485;28;20418;-71
2024/01/17 01:34:13;;;;;;;10.90;4.88;;;;;;;-0.96;100.00;99790.38;5055646;28;20039;-71
2024/01/17 01:37:00;;;;;;;8.55;4.38;;;;;;;-0.96;100.00;99795.56;5073254;28;20146;-71
2024/01/17 01:39:46;;;;;;;11.32;5.38;;;;;;;-0.98;100.00;99797.34;5077265;28;20139;-71
2024/01/17 01:42:31;;;;;;;9.55;5.18;;;;;;;-0.98;100.00;99793.91;5060384;28;20031;-70
2024/01/17 01:45:17;;;;;;;10.40;5.45;;;;;;;-0.98;100.00;99797.34;5047776;28;20036;-71
2024/01/17 01:48:03;;;;;;;10.90;5.75;;;;;;;-0.98;100.00;99773.94;5077666;28;20070;-70
2024/01/17 01:50:49;;;;;;;12.52;5.32;;;;;;;-0.99;100.00;99776.56;5075893;28;20048;-71
2024/01/17 01:53:35;;;;;;;9.38;5.30;;;;;;;-1.00;100.00;99767.94;5076242;28;20040;-71
2024/01/17 01:56:25;;;;;;;12.02;5.70;;;;;;;-1.02;100.00;99764.50;5068371;28;20039;-71
2024/01/17 01:59:12;;;;;;;8.80;5.68;;;;;;;-1.03;100.00;99767.13;5053782;28;20043;-70
2024/01/17 02:01:58;;;;;;;7.82;5.53;;;;;;;-1.05;100.00;99756.72;5075459;28;20479;-71
2024/01/17 02:04:44;;;;;;;10.25;5.53;;;;;;;-1.06;100.00;99760.22;5074086;28;20365;-70
2024/01/17 02:07:31;;;;;;;11.18;5.32;;;;;;;-1.09;100.00;99755.09;5057654;28;20036;-70
2024/01/17 02:10:16;;;;;;;10.88;6.05;;;;;;;-1.10;100.00;99743.81;5058609;28;20032;-70
2024/01/17 02:13:02;;;;;;;8.10;5.25;;;;;;;-1.11;100.00;99749.03;5043223;28;21247;-71
2024/01/17 02:15:48;;;;;;;10.73;5.75;;;;;;;-1.12;100.00;99755.97;5062740;28;21843;-69
2024/01/17 02:18:37;;;;;;;8.60;6.05;;;;;;;-1.13;100.00;99759.44;5052418;28;20580;-71
2024/01/17 02:21:22;;;;;;;11.02;6.22;;;;;;;-1.13;100.00;99751.63;5065911;28;20036;-70
2024/01/17 02:24:22;;;;;;;10.30;6.63;;;;;;;-1.14;100.00;99752.53;5054750;28;20044;-71
2024/01/17 02:27:08;;;;;;;9.30;5.80;;;;;;;-1.15;100.00;99749.97;5045754;28;20127;-71
2024/01/17 02:29:54;;;;;;;12.52;6.03;;;;;;;-1.15;100.00;99744.78;5069931;28;20039;-71
2024/01/17 02:32:41;;;;;;;9.45;6.22;;;;;;;-1.16;100.00;99749.09;5072420;28;20468;-71
2024/01/17 02:35:26;;;;;;;10.65;6.07;;;;;;;-1.15;100.00;99745.63;5073391;28;20056;-71
2024/01/17 02:38:12;;;;;;;9.35;6.30;;;;;;;-1.15;100.00;99726.59;5056010;28;20063;-72
2024/01/17 02:40:58;;;;;;;10.15;6.38;;;;;;;-1.15;100.00;99735.22;5058118;28;20039;-71
2024/01/17 02:43:44;;;;;;;10.77;6.32;;;;;;;-1.13;100.00;99720.47;5057338;28;20111;-71
2024/01/17 02:46:29;;;;;;;17.80;7.28;;;;;;;-1.11;100.00;99710.06;5059083;28;20043;-71
2024/01/17 02:49:19;;;;;;;10.25;6.50;;;;;;;-1.11;100.00;99704.88;5060944;28;20559;-71
2024/01/17 02:52:05;;;;;;;12.15;7.28;;;;;;;-1.10;100.00;99696.19;5072241;28;20044;-70
2024/01/17 02:54:51;;;;;;;12.25;7.15;;;;;;;-1.12;100.00;99690.16;5071854;28;20044;-71
2024/01/17 02:57:40;;;;;;;13.02;6.82;;;;;;;-1.11;100.00;99684.94;5070340;28;20040;-71
2024/01/17 03:00:26;;;;;;;16.35;7.53;;;;;;;-1.10;100.00;99684.06;5071654;28;20052;-71
2024/01/17 03:03:11;;;;;;;12.88;7.28;;;;;;;-1.08;100.00;99667.59;5072675;28;20459;-71
2024/01/17 03:05:57;;;;;;;13.38;7.38;;;;;;;-1.08;100.00;99665.00;5057620;28;20465;-71
2024/01/17 03:08:43;;;;;;;14.40;6.85;;;;;;;-1.08;100.00;99663.25;5052370;28;20116;-71
2024/01/17 03:11:29;;;;;;;11.98;7.28;;;;;;;-1.09;100.00;99664.16;5058644;28;20028;-72
2024/01/17 03:14:14;;;;;;;15.05;7.07;;;;;;;-1.10;100.00;99659.81;5073524;28;20096;-71
2024/01/17 03:17:00;;;;;;;14.88;7.25;;;;;;;-1.10;100.00;99658.09;5072334;28;20044;-71
2024/01/17 03:19:47;;;;;;;14.35;7.25;;;;;;;-1.10;100.00;99655.50;5072565;28;20039;-71
2024/01/17 03:22:33;;;;;;;13.95;7.40;;;;;;;-1.10;100.00;99644.22;5055484;28;20096;-71
2024/01/17 03:25:18;;;;;;;13.05;7.05;;;;;;;-1.09;100.00;99640.75;5073967;28;20047;-71
2024/01/17 03:28:04;;;;;;;14.00;7.95;;;;;;;-1.11;100.00;99634.72;5072450;28;20422;-72
2024/01/17 03:30:50;;;;;;;13.25;7.43;;;;;;;-1.11;100.00;99634.72;5071920;28;20048;-71
2024/01/17 03:33:36;;;;;;;12.25;7.60;;;;;;;-1.11;100.00;99637.31;5073332;28;20041;-72
2024/01/17 03:36:21;;;;;;;8.80;6.93;;;;;;;-1.10;100.00;99626.03;5057997;28;20072;-71
2024/01/17 03:39:07;;;;;;;13.15;7.88;;;;;;;-1.10;100.00;99613.91;5060367;28;20028;-71
2024/01/17 03:41:53;;;;;;;16.30;7.43;;;;;;;-1.07;100.00;99617.34;5082284;28;20040;-71
2024/01/17 03:44:38;;;;;;;14.15;7.50;;;;;;;-1.08;100.00;99602.63;5080129;28;20038;-71
2024/01/17 03:47:24;;;;;;;13.43;8.32;;;;;;;-1.07;100.00;99605.22;5063184;28;20479;-71
2024/01/17 03:50:10;;;;;;;15.32;7.90;;;;;;;-1.05;100.00;99593.03;5048081;28;20184;-71
2024/01/17 03:52:56;;;;;;;12.90;7.60;;;;;;;-1.07;100.00;99576.63;5079862;28;20139;-71
2024/01/17 03:55:42;;;;;;;18.48;7.82;;;;;;;-1.05;100.00;99579.22;5078665;28;20758;-72
2024/01/17 03:58:28;;;;;;;12.23;7.95;;;;;;;-1.05;100.00;99574.03;5078486;28;20039;-70
2024/01/17 04:01:13;;;;;;;11.57;7.60;;;;;;;-1.05;100.00;99569.66;5076354;28;20119;-71
2024/01/17 04:03:59;;;;;;;13.68;7.65;;;;;;;-1.06;100.00;99573.16;5077127;28;20044;-72
2024/01/17 04:06:45;;;;;;;11.90;7.95;;;;;;;-1.07;100.00;99558.44;5059388;28;20123;-71
2024/01/17 04:09:31;;;;;;;15.30;8.13;;;;;;;-1.06;100.00;99567.09;5077395;28;20046;-71
2024/01/17 04:12:16;;;;;;;15.27;8.40;;;;;;;-1.05;100.00;99568.81;5059913;28;21848;-72
2024/01/17 04:15:02;;;;;;;15.70;8.40;;;;;;;-1.07;100.00;99553.25;5075548;28;20674;-71
2024/01/17 04:17:48;;;;;;;14.70;7.93;;;;;;;-1.06;100.00;99551.50;5062537;28;20089;-71
2024/01/17 04:20:34;;;;;;;13.50;8.55;;;;;;;-1.07;100.00;99545.47;5075212;28;20036;-72
2024/01/17 04:23:20;;;;;;;15.98;8.40;;;;;;;-1.07;100.00;99531.59;5060087;28;20404;-71
2024/01/17 04:26:06;;;;;;;14.57;8.00;;;;;;;-1.08;100.00;99528.16;5078737;28;20054;-71
2024/01/17 04:28:53;;;;;;;13.43;8.25;;;;;;;-1.10;100.00;99516.91;5076820;28;20031;-71
2024/01/17 04:31:38;;;;;;;14.80;8.38;;;;;;;-1.11;100.00;99518.69;5076646;28;20032;-71
2024/01/17 04:34:24;;;;;;;16.83;8.77;;;;;;;-1.14;100.00;99516.13;5075792;28;20117;-72
2024/01/17 04:37:10;;;;;;;16.77;8.35;;;;;;;-1.15;100.00;99513.56;5078011;28;20065;-71
2024/01/17 04:39:57;;;;;;;15.20;8.27;;;;;;;-1.16;100.00;99514.44;5075391;28;20043;-71
2024/01/17 04:42:43;;;;;;;18.13;8.93;;;;;;;-1.17;100.00;99516.19;5080191;28;20032;-71
2024/01/17 04:45:30;;;;;;;14.98;8.27;;;;;;;-1.17;100.00;99513.59;5078872;28;20036;-71
2024/01/17 04:48:16;;;;;;;15.57;8.68;;;;;;;-1.18;100.00;99508.41;5074032;28;20032;-71
2024/01/17 04:51:04;;;;;;;15.23;9.07;;;;;;;-1.18;100.00;99500.63;5075670;28;20071;-71
2024/01/17 04:53:50;;;;;;;13.73;7.65;;;;;;;-1.19;100.00;99501.50;5062268;28;20051;-71
2024/01/17 04:56:36;;;;;;;14.48;8.25;;;;;;;-1.19;100.00;99493.72;5078507;28;20506;-70
2024/01/17 04:59:21;;;;;;;14.55;8.75;;;;;;;-1.19;100.00;99483.34;5060291;28;20039;-71
2024/01/17 05:02:07;;;;;;;15.52;8.77;;;;;;;-1.21;100.00;99485.13;5052197;28;20036;-71
2024/01/17 05:04:53;;;;;;;14.70;8.48;;;;;;;-1.23;100.00;99475.63;5062089;28;20036;-71
2024/01/17 05:07:39;;;;;;;12.98;8.15;;;;;;;-1.25;100.00;99474.75;5057153;28;20125;-71
2024/01/17 05:10:25;;;;;;;15.38;8.43;;;;;;;-1.26;100.00;99467.88;5057837;28;20035;-72
2024/01/17 05:13:13;;;;;;;13.48;7.70;;;;;;;-1.29;100.00;99460.16;5056559;28;20136;-71
2024/01/17 05:15:59;;;;;;;17.52;9.43;;;;;;;-1.30;100.00;99461.00;5052513;28;20115;-72
2024/01/17 05:18:45;;;;;;;16.00;8.18;;;;;;;-1.33;100.00;99448.09;5073492;28;20417;-72
2024/01/17 05:21:31;;;;;;;13.60;8.25;;;;;;;-1.35;100.00;99441.22;5075631;28;20156;-71
2024/01/17 05:24:17;;;;;;;14.70;8.57;;;;;;;-1.37;100.00;99443.81;5060051;28;20121;-72
2024/01/17 05:27:03;;;;;;;17.70;8.80;;;;;;;-1.40;100.00;99443.91;5056858;28;20173;-71
2024/01/17 05:29:48;;;;;;;19.50;8.70;;;;;;;-1.45;100.00;99433.59;5073004;28;20188;-71
2024/01/17 05:32:34;;;;;;;15.30;8.30;;;;;;;-1.51;100.00;99429.34;5074997;28;20063;-71
2024/01/17 05:35:23;;;;;;;16.83;8.15;;;;;;;-1.54;100.00;99421.63;5042677;28;20047;-72
2024/01/17 05:38:08;;;;;;;19.42;9.23;;;;;;;-1.57;100.00;99416.50;5074632;28;20040;-71
2024/01/17 05:41:03;;;;;;;12.63;7.97;;;;;;;-1.60;100.00;99410.50;5061182;28;20638;-72
2024/01/17 05:43:49;;;;;;;14.48;8.10;;;;;;;-1.66;100.00;99407.16;5076602;28;20534;-72
2024/01/17 05:46:34;;;;;;;15.80;9.00;;;;;;;-1.71;100.00;99406.38;5056128;28;20066;-72
2024/01/17 05:49:20;;;;;;;13.45;8.23;;;;;;;-1.75;100.00;99403.88;5062239;28;20032;-72
2024/01/17 05:52:06;;;;;;;16.35;8.48;;;;;;;-1.75;100.00;99414.25;5060167;28;20485;-72
2024/01/17 05:54:52;;;;;;;15.85;8.73;;;;;;;-1.77;100.00;99406.47;5077892;28;20587;-72
2024/01/17 05:57:38;;;;;;;13.68;8.02;;;;;;;-1.80;100.00;99409.13;5057896;28;20040;-72
2024/01/17 06:00:24;;;;;;;14.88;8.75;;;;;;;-1.81;100.00;99405.69;5064782;28;20091;-72
2024/01/17 06:03:10;;;;;;;15.23;8.52;;;;;;;-1.85;100.00;99406.59;5061190;28;20038;-72
2024/01/17 06:05:56;;;;;;;12.82;7.93;;;;;;;-1.87;100.00;99403.19;5073562;28;20789;-72
2024/01/17 06:08:42;;;;;;;17.75;8.20;;;;;;;-1.89;100.00;99404.97;5071633;28;20480;-72
2024/01/17 06:11:28;;;;;;;16.30;8.63;;;;;;;-1.93;100.00;99398.97;5076084;28;20036;-72
2024/01/17 06:14:13;;;;;;;16.25;8.05;;;;;;;-1.96;100.00;99393.81;5060353;28;20271;-72
2024/01/17 06:16:59;;;;;;;16.77;8.55;;;;;;;-1.99;100.00;99393.00;5072820;28;20062;-72
2024/01/17 06:19:45;;;;;;;20.45;9.05;;;;;;;-2.00;100.00;99397.38;5075308;28;20079;-72
2024/01/17 06:22:31;;;;;;;17.17;9.07;;;;;;;-2.01;100.00;99387.00;5054846;28;20040;-72
2024/01/17 06:25:17;;;;;;;19.92;8.68;;;;;;;-2.01;100.00;99385.28;5058159;28;20380;-72
2024/01/17 06:28:03;;;;;;;17.88;9.07;;;;;;;-2.00;100.00;99375.75;5055552;28;20033;-72
2024/01/17 06:30:48;;;;;;;15.80;8.40;;;;;;;-2.01;100.00;99377.50;5055926;28;20043;-72
2024/01/17 06:33:34;;;;;;;17.65;9.02;;;;;;;-2.03;100.00;99378.41;5056907;28;20058;-73
2024/01/17 06:36:20;;;;;;;17.42;8.88;;;;;;;-2.09;100.00;99381.94;5068255;28;20059;-72
2024/01/17 06:39:06;;;;;;;19.13;9.55;;;;;;;-2.12;100.00;99369.88;5076661;28;20028;-72
2024/01/17 06:41:52;;;;;;;18.63;9.32;;;;;;;-2.14;100.00;99368.22;5078508;28;20128;-72
2024/01/17 06:44:38;;;;;;;17.63;9.30;;;;;;;-2.17;100.00;99363.94;5075622;28;20116;-73
2024/01/17 06:47:24;;;;;;;14.90;8.48;;;;;;;-2.17;100.00;99363.94;5073641;28;20376;-72
2024/01/17 06:50:13;;;;;;;20.05;9.23;;;;;;;-2.16;100.00;99368.22;5057072;28;20576;-73
2024/01/17 06:53:00;;;;;;;16.42;8.85;;;;;;;-2.16;100.00;99364.75;5072780;28;20036;-72
2024/01/17 06:55:46;;;;;;;17.75;8.85;;;;;;;-2.22;100.00;99358.78;5077002;28;20036;-73
2024/01/17 06:58:31;;;;;;;20.50;9.45;;;;;;;-2.24;100.00;99359.72;5075866;28;20099;-73
2024/01/17 07:01:17;;;;;;;15.85;8.68;;;;;;;-2.28;100.00;99358.06;5064336;28;20041;-73
2024/01/17 07:04:03;;;;;;;18.23;9.73;;;;;;;-2.29;100.00;99356.34;5073372;28;20564;-73
2024/01/17 07:06:49;;;;;;;16.52;8.82;;;;;;;-2.34;100.00;99351.25;5071946;28;20040;-73
2024/01/17 07:09:34;;;;;;;18.15;8.48;;;;;;;-2.37;100.00;99346.97;5059058;28;20032;-73
2024/01/17 07:12:21;;;;;;;15.13;8.68;;;;;;;-2.41;100.00;99337.50;5075524;28;20040;-73
2024/01/17 07:15:07;;;;;;;13.00;8.90;;;;;;;-2.45;100.00;99333.28;5083322;28;20041;-73
2024/01/17 07:17:53;;;;;;;17.25;8.82;;;;;;;-2.49;100.00;99339.38;5064965;28;20044;-73
2024/01/17 07:20:39;;;;;;;17.65;8.93;;;;;;;-2.51;100.00;99335.97;5062860;28;20040;-73
2024/01/17 07:23:25;;;;;;;17.33;11.57;;;;;;;-2.54;100.00;99336.00;5044809;28;20028;-73
2024/01/17 07:26:10;;;;;;;20.17;9.23;;;;;;;-2.57;100.00;99334.31;5063075;28;20044;-73
2024/01/17 07:28:56;;;;;;;16.08;8.88;;;;;;;-2.59;100.00;99323.13;5079764;28;20047;-73
2024/01/17 07:31:42;;;;;;;17.33;8.52;;;;;;;-2.55;100.00;99336.88;5064588;28;20027;-73
2024/01/17 07:34:28;;;;;;;16.63;8.32;;;;;;;-2.57;100.00;99325.69;5062889;28;20025;-72
2024/01/17 07:37:17;;;;;;;16.20;8.38;;;;;;;-2.58;100.00;99309.28;5078533;28;20098;-72
2024/01/17 07:40:04;;;;;;;17.30;8.73;;;;;;;-2.60;100.00;99300.66;5082266;28;20040;-73
2024/01/17 07:42:51;;;;;;;13.60;8.65;;;;;;;-2.62;100.00;99300.69;5062314;28;20220;-73
2024/01/17 07:45:37;;;;;;;17.55;8.80;;;;;;;-2.59;100.00;99294.59;5061788;28;21062;-72
2024/01/17 07:48:23;;;;;;;13.43;8.13;;;;;;;-2.59;100.00;99294.59;5062805;28;20036;-73
2024/01/17 07:51:09;;;;;;;15.32;8.20;;;;;;;-2.57;100.00;99287.66;5066717;28;20077;-72
2024/01/17 07:53:56;;;;;;;17.77;8.50;;;;;;;-2.54;100.00;99286.75;5060841;28;20530;-72
2024/01/17 07:56:43;;;;;;;14.52;8.70;;;;;;;-2.53;100.00;99288.44;5054824;28;20051;-72
2024/01/17 07:59:29;;;;;;;15.77;8.18;;;;;;;-2.55;100.00;99290.22;5061057;28;20154;-72
2024/01/17 08:02:17;;;;;;;16.80;8.40;;;;;;;-2.55;100.00;99300.59;5074353;28;20031;-72
2024/01/17 08:05:03;;;;;;;13.18;7.65;;;;;;;-2.54;100.00;99297.13;5075232;28;20040;-72
2024/01/17 08:07:49;;;;;;;16.58;8.18;;;;;;;-2.54;100.00;99287.63;5078017;28;20101;-70
2024/01/17 08:10:34;;;;;;;16.13;8.90;;;;;;;-2.52;100.00;99284.97;5061010;28;22166;-70
2024/01/17 08:13:20;;;;;;;16.92;9.95;;;;;;;-2.50;100.00;99284.06;5077024;28;20061;-72
2024/01/17 08:16:06;;;;;;;15.18;8.73;;;;;;;-2.48;100.00;99284.06;5074572;28;20554;-73
2024/01/17 08:18:51;;;;;;;16.00;9.15;;;;;;;-2.47;100.00;99283.16;5075694;28;20063;-72
2024/01/17 08:21:37;;;;;;;15.35;8.25;;;;;;;-2.45;100.00;99278.84;5073778;28;20047;-72
2024/01/17 08:24:23;;;;;;;15.45;9.57;;;;;;;-2.41;100.00;99283.06;5071686;28;20040;-72
2024/01/17 08:27:08;;;;;;;18.60;9.00;;;;;;;-2.40;100.00;99274.41;5073018;28;20041;-72
2024/01/17 08:29:54;;;;;;;16.23;8.25;;;;;;;-2.39;100.00;99260.56;5059333;28;20037;-72
2024/01/17 08:32:40;;;;;;;14.55;7.60;;;;;;;-2.37;100.00;99266.59;5071497;28;20741;-72
2024/01/17 08:35:26;;;;;;;16.85;9.25;;;;;;;-2.36;100.00;99264.84;5055999;28;20054;-72
2024/01/17 08:38:12;;;;;;;21.83;9.55;;;;;;;-2.37;100.00;99263.13;5059717;28;20510;-72
2024/01/17 08:40:57;;;;;;;16.48;8.65;;;;;;;-2.38;100.00;99264.00;5061208;28;20471;-72
2024/01/17 08:43:43;;;;;;;17.33;9.48;;;;;;;-2.37;100.00;99266.59;5058220;28;20116;-72
2024/01/17 08:46:29;;;;;;;14.63;9.27;;;;;;;-2.38;100.00;99254.53;5072931;28;20570;-72
2024/01/17 08:49:15;;;;;;;13.23;9.20;;;;;;;-2.37;100.00;99248.44;5074175;28;20491;-72
2024/01/17 08:52:00;;;;;;;18.13;9.80;;;;;;;-2.36;100.00;99250.16;5077618;28;20129;-72
2024/01/17 08:54:46;;;;;;;17.05;9.15;;;;;;;-2.35;100.00;99238.03;5077319;28;20031;-72
2024/01/17 08:57:32;;;;;;;17.88;8.90;;;;;;;-2.37;100.00;99235.47;5058566;28;20032;-73
2024/01/17 09:00:19;;;;;;;18.73;9.32;;;;;;;-2.37;100.00;99235.47;5073207;28;20043;-72
2024/01/17 09:03:05;;;;;;;17.83;9.52;;;;;;;-2.37;100.00;99229.44;5076061;28;20037;-72
2024/01/17 09:05:50;;;;;;;15.90;9.18;;;;;;;-2.35;100.00;99233.72;5061025;28;20166;-72
2024/01/17 09:08:36;;;;;;;14.80;9.35;;;;;;;-2.30;100.00;99228.44;5075280;28;20474;-72
2024/01/17 09:11:22;;;;;;;14.95;9.52;;;;;;;-2.27;100.00;99232.72;5058840;28;20078;-72
2024/01/17 09:14:10;;;;;;;15.80;9.38;;;;;;;-2.23;100.00;99231.78;5077232;28;20044;-72
2024/01/17 09:16:55;;;;;;;16.63;9.73;;;;;;;-2.23;100.00;99224.00;5077094;28;20085;-72
2024/01/17 09:19:43;;;;;;;16.63;9.93;;;;;;;-2.21;100.00;99228.28;5077159;28;20039;-72
2024/01/17 09:22:29;;;;;;;15.02;9.57;;;;;;;-2.18;100.00;99222.19;5076189;28;20040;-73
2024/01/17 09:25:14;;;;;;;16.17;9.75;;;;;;;-2.15;100.00;99229.91;5058190;28;20039;-72
2024/01/17 09:28:00;;;;;;;15.55;8.68;;;;;;;-2.13;100.00;99230.72;5074974;28;20050;-73
2024/01/17 09:30:46;;;;;;;16.40;8.88;;;;;;;-2.11;100.00;99228.97;5074718;28;20148;-74
2024/01/17 09:33:31;;;;;;;16.08;9.63;;;;;;;-2.08;100.00;99218.50;5073528;28;20157;-73
2024/01/17 09:36:17;;;;;;;17.48;9.10;;;;;;;-2.07;100.00;99216.78;5060855;28;20067;-73
2024/01/17 09:39:04;;;;;;;17.73;9.02;;;;;;;-2.03;100.00;99215.00;5077696;28;20048;-73
2024/01/17 09:41:51;;;;;;;16.27;9.35;;;;;;;-2.01;100.00;99215.81;5060348;28;20032;-73
2024/01/17 09:44:37;;;;;;;18.83;9.65;;;;;;;-1.97;100.00;99212.28;5057830;28;20654;-73
2024/01/17 09:47:23;;;;;;;16.90;9.40;;;;;;;-1.96;100.00;99214.81;5077297;28;20039;-73
2024/01/17 09:50:08;;;;;;;14.25;8.95;;;;;;;-1.92;100.00;99213.00;5061804;28;20716;-72
2024/01/17 09:52:55;;;;;;;13.55;8.30;;;;;;;-1.89;100.00;99204.31;5071901;28;20044;-73
2024/01/17 09:55:41;;;;;;;17.38;8.93;;;;;;;-1.86;100.00;99199.09;5061270;28;20076;-73
2024/01/17 09:58:31;;;;;;;17.17;8.40;;;;;;;-1.84;100.00;99198.16;5059898;28;20526;-73
2024/01/17 10:01:18;;;;;;;16.25;8.38;;;;;;;-1.84;100.00;99197.28;5063594;28;20412;-73
2024/01/17 10:04:04;;;;;;;16.23;8.63;;;;;;;-1.83;100.00;99201.59;5067274;28;20056;-72
2024/01/17 10:06:52;;;;;;;13.18;8.90;;;;;;;-1.83;100.00;99199.00;5076542;28;20661;-72
2024/01/17 10:09:38;;;;;;;13.10;7.90;;;;;;;-1.83;100.00;99209.38;5073778;28;20051;-73
2024/01/17 10:12:23;;;;;;;18.00;9.00;;;;;;;-1.80;100.00;99201.56;5071994;28;20038;-73
2024/01/17 10:15:12;;;;;;;14.63;8.35;;;;;;;-1.80;100.00;99201.56;5059028;28;20069;-74
2024/01/17 10:17:58;;;;;;;17.13;8.00;;;;;;;-1.78;100.00;99199.78;5058090;28;20061;-73
2024/01/17 10:20:44;;;;;;;12.80;8.15;;;;;;;-1.73;100.00;99202.25;5057092;28;20119;-73
2024/01/17 10:23:30;;;;;;;12.73;7.40;;;;;;;-1.71;100.00;99195.28;5058723;28;20526;-73
2024/01/17 10:26:17;;;;;;;15.77;8.45;;;;;;;-1.68;100.00;99190.06;5075781;28;20487;-73
2024/01/17 10:29:03;;;;;;;13.68;7.68;;;;;;;-1.63;100.00;99183.03;5045969;28;20032;-72
2024/01/17 10:31:48;;;;;;;13.50;7.82;;;;;;;-1.60;100.00;99177.75;5052072;28;20047;-72
2024/01/17 10:34:37;;;;;;;16.95;8.80;;;;;;;-1.57;100.00;99172.47;5057541;28;21802;-71
2024/01/17 10:37:22;;;;;;;12.20;7.82;;;;;;;-1.53;100.00;99168.94;5057313;28;20063;-72
2024/01/17 10:40:10;;;;;;;14.23;7.95;;;;;;;-1.49;100.00;99168.88;5075686;28;20062;-73
2024/01/17 10:43:10;;;;;;;12.70;7.20;;;;;;;-1.46;100.00;99166.19;5057430;28;20024;-73
2024/01/17 10:45:56;;;;;;;12.73;7.78;;;;;;;-1.44;100.00;99167.88;5057697;28;20028;-72
2024/01/17 10:48:41;;;;;;;11.93;7.68;;;;;;;-1.43;100.00;99159.19;5072022;28;20041;-73
2024/01/17 10:51:30;;;;;;;12.93;7.70;;;;;;;-1.39;100.00;99165.16;5075149;28;20054;-73
2024/01/17 10:54:16;;;;;;;10.43;6.70;;;;;;;-1.35;100.00;99163.34;5044672;28;20020;-73
2024/01/17 10:57:06;;;;;;;10.60;6.43;;;;;;;-1.34;100.00;99158.13;5060633;28;20443;-73
2024/01/17 10:59:51;;;;;;;14.45;8.02;;;;;;;-1.32;100.00;99152.91;5057463;28;20059;-73
2024/01/17 11:02:40;;;;;;;11.15;6.95;;;;;;;-1.28;100.00;99162.31;5072820;28;20070;-73
2024/01/17 11:05:30;;;;;;;12.85;7.20;;;;;;;-1.26;100.00;99158.81;5071544;28;20035;-73
2024/01/17 11:08:16;;;;;;;10.93;7.30;;;;;;;-1.24;100.00;99158.78;5053833;28;20051;-72
2024/01/17 11:11:02;;;;;;;11.05;7.60;;;;;;;-1.19;100.00;99154.34;5044848;28;20043;-72
2024/01/17 11:13:50;;;;;;;12.80;6.97;;;;;;;-1.15;100.00;99155.09;5045071;28;20051;-73
2024/01/17 11:16:36;;;;;;;15.93;8.00;;;;;;;-1.13;100.00;99145.53;5059382;28;20062;-72
2024/01/17 11:19:23;;;;;;;12.65;7.93;;;;;;;-1.13;100.00;99141.16;5043868;28;20379;-72
2024/01/17 11:22:09;;;;;;;14.23;6.60;;;;;;;-1.10;100.00;99148.03;5070329;28;20058;-73
2024/01/17 11:24:58;;;;;;;13.90;7.32;;;;;;;-1.13;100.00;99141.16;5059930;28;20052;-72
2024/01/17 11:27:49;;;;;;;10.68;6.93;;;;;;;-1.11;100.00;99142.00;5043411;28;20051;-73
2024/01/17 11:30:47;;;;;;;15.63;7.32;;;;;;;-1.10;100.00;99143.72;5055952;28;20040;-74
2024/01/17 11:33:33;;;;;;;8.70;6.13;;;;;;;-1.09;100.00;99136.78;5050217;28;20036;-71
2024/01/17 11:36:42;;;;;;;9.48;5.80;;;;;;;-1.07;100.00;99132.38;5060348;28;20076;-73
2024/01/17 11:39:28;;;;;;;12.38;6.15;;;;;;;-1.06;100.00;99126.28;5053074;28;21118;-72
2024/01/17 11:42:14;;;;;;;11.75;6.90;;;;;;;-1.06;100.00;99121.09;5043670;28;20045;-71
2024/01/17 11:45:02;;;;;;;11.32;6.35;;;;;;;-1.00;100.00;99123.53;5050362;28;20424;-73
2024/01/17 11:47:55;;;;;;;9.27;6.43;;;;;;;-0.97;100.00;99127.81;5053199;28;20040;-71
2024/01/17 11:50:41;;;;;;;10.48;5.68;;;;;;;-0.95;100.00;99123.44;5053057;28;20044;-73
2024/01/17 11:53:28;;;;;;;8.02;5.05;;;;;;;-0.98;100.00;99119.16;5051280;28;20032;-73
2024/01/17 11:56:15;;;;;;;14.63;5.95;;;;;;;-1.02;100.00;99120.16;5044583;28;20040;-73
2024/01/17 11:59:05;;;;;;;12.90;6.15;;;;;;;-1.00;100.00;99127.88;5056224;28;20595;-73
2024/01/17 12:01:53;;;;;;;11.07;6.35;;;;;;;-1.04;100.00;99121.06;5058137;28;20051;-73
2024/01/17 12:04:44;;;;;;;9.20;5.72;;;;;;;-1.07;100.00;99128.91;5050251;28;20044;-73
2024/01/17 12:07:30;;;;;;;10.45;5.75;;;;;;;-1.10;100.00;99129.84;5030760;28;20062;-73
2024/01/17 12:10:16;;;;;;;10.82;5.72;;;;;;;-1.13;100.00;99124.75;5043269;28;20044;-73
2024/01/17 12:13:07;;;;;;;12.02;6.22;;;;;;;-1.16;100.00;99117.00;5038328;28;20049;-73
2024/01/17 12:15:56;;;;;;;11.13;5.65;;;;;;;-1.24;100.00;99107.66;5042024;28;20090;-73
2024/01/17 12:18:43;;;;;;;10.63;6.40;;;;;;;-1.27;100.00;99097.38;5054850;28;20947;-71
2024/01/17 12:21:29;;;;;;;9.95;6.57;;;;;;;-1.28;100.00;99092.22;5042764;28;20087;-72
2024/01/17 12:24:15;;;;;;;11.65;6.40;;;;;;;-1.28;100.00;99089.59;5043108;28;20656;-72
2024/01/17 12:27:05;;;;;;;10.65;5.72;;;;;;;-1.31;100.00;99080.16;5054091;28;20036;-73
2024/01/17 12:29:54;;;;;;;9.93;5.85;;;;;;;-1.31;100.00;99074.94;5042700;28;20029;-73
2024/01/17 12:32:40;;;;;;;10.25;6.70;;;;;;;-1.31;100.00;99077.53;5042826;28;20048;-74
2024/01/17 12:35:26;;;;;;;11.27;6.68;;;;;;;-1.32;100.00;99072.41;5056114;28;20072;-71
2024/01/17 12:38:12;;;;;;;15.32;7.00;;;;;;;-1.30;100.00;99068.03;5039300;28;20039;-71
2024/01/17 12:41:00;;;;;;;12.60;7.10;;;;;;;-1.28;100.00;99061.03;5038992;28;20036;-70
2024/01/17 12:43:46;;;;;;;11.80;6.90;;;;;;;-1.26;100.00;99061.84;5059148;28;20044;-71
2024/01/17 12:46:32;;;;;;;14.50;7.90;;;;;;;-1.23;100.00;99056.59;5037922;28;20041;-72